createdAt,value
2022-11-16T00:00:18.681Z,30.48
2022-11-16T00:02:46.067Z,23.48
2022-11-16T00:05:13.331Z,26.20
2022-11-16T00:07:40.538Z,31.00
2022-11-16T00:10:08.045Z,24.00
2022-11-16T00:12:35.308Z,24.30
2022-11-16T00:15:02.455Z,25.30
2022-11-16T00:17:29.737Z,25.33
2022-11-16T00:19:56.999Z,25.20
2022-11-16T00:22:24.106Z,21.23
2022-11-16T00:24:51.289Z,23.10
2022-11-16T00:27:18.417Z,20.88
2022-11-16T00:29:46.079Z,24.27
2022-11-16T00:32:13.271Z,23.02
2022-11-16T00:34:40.906Z,22.65
2022-11-16T00:37:08.008Z,24.05
2022-11-16T00:39:35.214Z,20.00
2022-11-16T00:42:02.635Z,26.08
2022-11-16T00:44:29.779Z,24.83
2022-11-16T00:46:56.886Z,25.88
2022-11-16T00:49:23.980Z,18.83
2022-11-16T00:51:56.603Z,20.60
2022-11-16T00:54:23.812Z,23.08
2022-11-16T00:56:50.908Z,23.77
2022-11-16T00:59:18.081Z,21.25
2022-11-16T01:01:45.244Z,19.25
2022-11-16T01:04:12.572Z,20.10
2022-11-16T01:06:39.867Z,18.15
2022-11-16T01:09:06.978Z,20.35
2022-11-16T01:11:52.814Z,20.20
2022-11-16T01:14:19.978Z,19.85
2022-11-16T01:16:49.783Z,18.55
2022-11-16T01:19:16.902Z,20.73
2022-11-16T01:21:44.066Z,18.27
2022-11-16T01:24:11.198Z,18.20
2022-11-16T01:26:38.342Z,17.50
2022-11-16T01:29:05.491Z,17.13
2022-11-16T01:31:32.658Z,17.95
2022-11-16T01:33:59.782Z,18.00
2022-11-16T01:36:26.964Z,18.13
2022-11-16T01:38:54.079Z,17.63
2022-11-16T01:41:22.771Z,21.75
2022-11-16T01:44:01.918Z,16.85
2022-11-16T01:46:29.612Z,18.10
2022-11-16T01:49:04.935Z,20.20
2022-11-16T01:51:33.206Z,19.35
2022-11-16T01:54:01.975Z,19.48
2022-11-16T01:56:30.392Z,15.55
2022-11-16T01:58:59.019Z,18.73
2022-11-16T02:01:26.231Z,16.20
2022-11-16T02:03:53.488Z,16.20
2022-11-16T02:06:26.835Z,17.00
2022-11-16T02:09:27.686Z,18.17
2022-11-16T02:12:03.822Z,15.13
2022-11-16T02:14:42.518Z,17.60
2022-11-16T02:17:15.648Z,15.10
2022-11-16T02:19:42.781Z,15.13
2022-11-16T02:22:22.309Z,17.20
2022-11-16T02:25:06.198Z,16.02
2022-11-16T02:27:51.465Z,17.65
2022-11-16T02:30:19.553Z,15.07
2022-11-16T02:32:57.039Z,20.33
2022-11-16T02:35:24.129Z,14.30
2022-11-16T02:37:53.513Z,14.73
2022-11-16T02:40:22.356Z,18.17
2022-11-16T02:42:53.933Z,14.38
2022-11-16T02:45:23.122Z,15.68
2022-11-16T02:47:51.396Z,14.60
2022-11-16T02:50:21.265Z,18.50
2022-11-16T02:52:48.559Z,13.45
2022-11-16T02:55:15.816Z,13.80
2022-11-16T02:57:45.352Z,15.18
2022-11-16T03:00:23.371Z,16.23
2022-11-16T03:03:00.620Z,13.80
2022-11-16T03:05:56.821Z,13.93
2022-11-16T03:08:29.921Z,13.55
2022-11-16T03:11:21.742Z,14.32
2022-11-16T03:13:49.392Z,13.57
2022-11-16T03:16:26.016Z,13.40
2022-11-16T03:18:54.677Z,13.48
2022-11-16T03:21:24.861Z,15.98
2022-11-16T03:23:54.581Z,14.95
2022-11-16T03:26:24.226Z,12.60
2022-11-16T03:29:00.391Z,15.07
2022-11-16T03:31:50.582Z,12.40
2022-11-16T03:34:19.711Z,11.38
2022-11-16T03:36:47.934Z,13.43
2022-11-16T03:39:22.037Z,13.05
2022-11-16T03:41:50.663Z,11.70
2022-11-16T03:44:18.957Z,12.65
2022-11-16T03:46:46.295Z,13.43
2022-11-16T03:49:13.456Z,13.85
2022-11-16T03:51:40.643Z,15.65
2022-11-16T03:54:10.597Z,12.93
2022-11-16T03:56:37.716Z,14.05
2022-11-16T03:59:04.883Z,12.27
2022-11-16T04:01:32.043Z,12.52
2022-11-16T04:03:59.445Z,11.25
2022-11-16T04:06:45.435Z,12.23
2022-11-16T04:09:31.553Z,11.13
2022-11-16T04:12:19.660Z,11.90
2022-11-16T04:15:05.744Z,11.90
2022-11-16T04:17:51.879Z,12.25
2022-11-16T04:20:37.942Z,11.43
2022-11-16T04:23:34.639Z,12.38
2022-11-16T04:28:31.025Z,14.10
2022-11-16T04:31:18.371Z,10.73
2022-11-16T04:34:04.524Z,12.35
2022-11-16T04:36:50.706Z,11.80
2022-11-16T04:39:17.905Z,11.15
2022-11-16T04:42:03.707Z,11.63
2022-11-16T04:44:50.874Z,12.00
2022-11-16T04:47:18.036Z,10.75
2022-11-16T04:49:45.173Z,14.15
2022-11-16T04:52:12.537Z,11.23
2022-11-16T04:54:39.683Z,11.02
2022-11-16T04:57:06.823Z,12.80
2022-11-16T04:59:33.978Z,12.18
2022-11-16T05:02:10.280Z,13.25
2022-11-16T05:04:37.585Z,11.95
2022-11-16T05:07:10.664Z,12.27
2022-11-16T05:09:45.360Z,10.27
2022-11-16T05:12:14.832Z,10.63
2022-11-16T05:14:42.897Z,10.55
2022-11-16T05:17:10.443Z,10.57
2022-11-16T05:19:56.200Z,11.10
2022-11-16T05:22:23.441Z,11.93
2022-11-16T05:24:50.817Z,10.45
2022-11-16T05:27:21.870Z,10.45
2022-11-16T05:29:49.723Z,10.30
2022-11-16T05:32:17.694Z,10.35
2022-11-16T05:34:45.142Z,10.35
2022-11-16T05:37:12.411Z,10.38
2022-11-16T05:39:39.598Z,10.13
2022-11-16T05:42:07.005Z,10.55
2022-11-16T05:44:34.305Z,11.43
2022-11-16T05:47:01.913Z,12.68
2022-11-16T05:49:29.030Z,10.70
2022-11-16T05:51:56.217Z,10.25
2022-11-16T05:54:27.375Z,12.48
2022-11-16T05:56:55.297Z,10.10
2022-11-16T05:59:23.043Z,9.73
2022-11-16T06:01:53.166Z,11.88
2022-11-16T06:04:26.066Z,10.30
2022-11-16T06:06:53.333Z,13.00
2022-11-16T06:09:20.678Z,12.80
2022-11-16T06:11:47.871Z,11.98
2022-11-16T06:14:15.049Z,10.55
2022-11-16T06:16:42.251Z,16.65
2022-11-16T06:19:09.362Z,16.23
2022-11-16T06:21:36.605Z,15.98
2022-11-16T06:24:08.801Z,11.18
2022-11-16T06:26:36.238Z,13.55
2022-11-16T06:29:03.479Z,11.18
2022-11-16T06:31:30.971Z,14.15
2022-11-16T06:33:58.105Z,12.50
2022-11-16T06:36:25.451Z,13.40
2022-11-16T06:38:52.641Z,12.82
2022-11-16T06:41:20.115Z,14.80
2022-11-16T06:43:47.385Z,14.77
2022-11-16T06:46:14.603Z,13.98
2022-11-16T06:48:41.729Z,15.50
2022-11-16T06:51:08.896Z,13.70
2022-11-16T06:56:29.900Z,13.55
2022-11-16T06:58:57.281Z,19.65
2022-11-16T07:01:24.542Z,18.38
2022-11-16T07:03:51.847Z,16.80
2022-11-16T07:06:19.439Z,16.15
2022-11-16T07:08:46.625Z,14.30
2022-11-16T07:11:13.742Z,15.10
2022-11-16T07:13:40.930Z,13.25
2022-11-16T07:16:08.897Z,14.88
2022-11-16T07:18:36.958Z,18.35
2022-11-16T07:21:12.052Z,13.05
2022-11-16T07:23:39.237Z,19.38
2022-11-16T07:26:07.508Z,12.35
2022-11-16T07:28:34.897Z,13.95
2022-11-16T07:31:06.584Z,15.60
2022-11-16T07:33:33.956Z,12.30
2022-11-16T07:36:27.582Z,14.27
2022-11-16T07:38:54.758Z,17.33
2022-11-16T07:41:21.948Z,16.83
2022-11-16T07:43:52.944Z,14.27
2022-11-16T07:46:46.074Z,78.15
2022-11-16T07:49:11.556Z,35.53
2022-11-16T07:51:39.043Z,46.30
2022-11-16T07:54:06.625Z,53.67
2022-11-16T07:56:33.900Z,47.30
2022-11-16T07:59:01.553Z,44.45
2022-11-16T08:01:28.728Z,44.28
2022-11-16T08:03:56.311Z,44.80
2022-11-16T08:06:23.499Z,43.28
2022-11-16T08:08:55.208Z,39.15
2022-11-16T08:11:25.394Z,40.30
2022-11-16T08:13:52.535Z,41.22
2022-11-16T08:16:21.530Z,42.58
2022-11-16T08:18:48.950Z,36.50
2022-11-16T08:21:16.998Z,33.42
2022-11-16T08:23:47.079Z,30.17
2022-11-16T08:26:18.476Z,36.03
2022-11-16T08:28:46.773Z,35.20
2022-11-16T08:31:18.639Z,33.22
2022-11-16T08:33:46.138Z,37.10
2022-11-16T08:36:17.211Z,30.67
2022-11-16T08:38:48.331Z,33.22
2022-11-16T08:41:16.252Z,31.98
2022-11-16T08:43:44.588Z,31.17
2022-11-16T08:46:11.894Z,35.30
2022-11-16T08:48:39.470Z,31.63
2022-11-16T08:53:56.556Z,31.60
2022-11-16T08:56:23.757Z,27.08
2022-11-16T08:58:58.179Z,23.98
2022-11-16T09:01:27.252Z,31.08
2022-11-16T09:03:54.729Z,26.10
2022-11-16T09:06:22.816Z,27.98
2022-11-16T09:08:50.406Z,27.27
2022-11-16T09:11:18.884Z,26.30
2022-11-16T09:16:31.556Z,26.80
2022-11-16T09:18:58.683Z,26.95
2022-11-16T09:21:29.557Z,34.40
2022-11-16T09:23:57.739Z,29.38
2022-11-16T09:26:26.196Z,30.27
2022-11-16T09:28:58.312Z,27.83
2022-11-16T09:31:29.056Z,25.98
2022-11-16T09:33:58.380Z,26.90
2022-11-16T09:36:26.509Z,26.40
2022-11-16T09:39:25.787Z,24.08
2022-11-16T09:41:53.426Z,26.80
2022-11-16T09:44:39.193Z,29.83
2022-11-16T09:47:10.005Z,24.55
2022-11-16T09:49:40.234Z,27.33
2022-11-16T09:52:10.546Z,22.77
2022-11-16T09:54:40.603Z,26.88
2022-11-16T09:57:12.256Z,25.48
2022-11-16T09:59:44.911Z,21.88
2022-11-16T10:02:30.548Z,24.25
2022-11-16T10:05:10.644Z,23.80
2022-11-16T10:07:42.809Z,22.02
2022-11-16T10:10:17.006Z,25.17
2022-11-16T10:12:52.933Z,22.92
2022-11-16T10:15:37.549Z,26.63
2022-11-16T10:18:07.449Z,22.63
2022-11-16T10:20:53.565Z,23.38
2022-11-16T10:23:32.803Z,24.40
2022-11-16T10:26:07.509Z,25.38
2022-11-16T10:28:34.801Z,22.65
2022-11-16T10:31:14.722Z,23.08
2022-11-16T10:33:42.716Z,23.05
2022-11-16T10:36:13.618Z,23.45
2022-11-16T10:38:41.744Z,23.20
2022-11-16T10:41:24.349Z,21.42
2022-11-16T10:43:51.452Z,21.55
2022-11-16T10:46:18.593Z,24.42
2022-11-16T10:48:48.727Z,19.25
2022-11-16T10:51:15.865Z,21.30
2022-11-16T10:53:46.808Z,19.00
2022-11-16T10:56:13.984Z,17.05
2022-11-16T10:58:53.197Z,19.40
2022-11-16T11:01:34.054Z,20.13
2022-11-16T11:04:33.854Z,18.65
2022-11-16T11:07:24.611Z,19.15
2022-11-16T11:09:55.022Z,16.92
2022-11-16T11:12:38.304Z,19.05
2022-11-16T11:15:08.470Z,20.65
2022-11-16T11:17:36.416Z,20.13
2022-11-16T11:20:07.717Z,16.83
2022-11-16T11:22:36.455Z,20.95
2022-11-16T11:25:03.792Z,18.58
2022-11-16T11:27:35.555Z,17.50
2022-11-16T11:30:03.849Z,18.98
2022-11-16T11:32:35.758Z,15.55
2022-11-16T11:35:03.915Z,16.00
2022-11-16T11:37:33.982Z,18.52
2022-11-16T11:40:10.142Z,18.65
2022-11-16T11:42:41.204Z,17.52
2022-11-16T11:45:09.701Z,16.02
2022-11-16T11:48:00.322Z,17.33
2022-11-16T11:50:34.461Z,17.13
2022-11-16T11:53:09.051Z,15.23
2022-11-16T11:55:36.242Z,15.48
2022-11-16T11:58:05.165Z,16.40
2022-11-16T12:00:54.993Z,14.75
2022-11-16T12:03:37.887Z,16.55
2022-11-16T12:06:05.862Z,16.27
2022-11-16T12:08:49.082Z,14.98
2022-11-16T12:11:35.217Z,17.45
2022-11-16T12:14:18.185Z,15.70
2022-11-16T12:16:45.356Z,13.48
2022-11-16T12:19:21.829Z,14.50
2022-11-16T12:22:08.218Z,13.88
2022-11-16T12:24:38.220Z,12.88
2022-11-16T12:27:27.022Z,13.77
2022-11-16T12:30:10.506Z,13.10
2022-11-16T12:32:40.690Z,14.38
2022-11-16T12:35:40.149Z,15.00
2022-11-16T12:38:16.121Z,14.27
2022-11-16T12:41:01.985Z,13.73
2022-11-16T12:43:35.776Z,13.93
2022-11-16T12:46:22.079Z,15.30
2022-11-16T12:48:49.201Z,13.98
2022-11-16T12:51:39.426Z,13.68
2022-11-16T12:54:15.810Z,16.58
2022-11-16T12:56:49.358Z,17.13
2022-11-16T12:59:35.581Z,19.23
2022-11-16T13:02:04.253Z,19.40
2022-11-16T13:04:43.556Z,19.77
2022-11-16T13:07:12.878Z,15.68
2022-11-16T13:10:00.332Z,17.77
2022-11-16T13:12:28.772Z,18.25
2022-11-16T13:14:57.097Z,18.45
2022-11-16T13:17:32.758Z,19.25
2022-11-16T13:20:18.691Z,19.00
2022-11-16T13:22:59.718Z,19.40
2022-11-16T13:25:39.224Z,21.45
2022-11-16T13:28:12.266Z,18.20
2022-11-16T13:30:47.700Z,18.75
2022-11-16T13:33:25.693Z,18.65
2022-11-16T13:35:52.937Z,18.33
2022-11-16T13:38:40.048Z,19.73
2022-11-16T13:41:25.881Z,20.52
2022-11-16T13:43:53.365Z,19.45
2022-11-16T13:46:53.589Z,17.15
2022-11-16T13:49:19.409Z,25.88
2022-11-16T13:51:54.711Z,19.98
2022-11-16T13:54:47.720Z,21.25
2022-11-16T13:57:32.112Z,20.13
2022-11-16T14:00:02.243Z,20.88
2022-11-16T14:02:31.542Z,20.08
2022-11-16T14:04:58.660Z,24.13
2022-11-16T14:07:30.056Z,23.77
2022-11-16T14:09:57.314Z,21.83
2022-11-16T14:12:39.820Z,24.27
2022-11-16T14:15:12.789Z,19.00
2022-11-16T14:17:53.071Z,19.63
2022-11-16T14:20:26.953Z,21.63
2022-11-16T14:22:58.614Z,20.30
2022-11-16T14:26:01.181Z,19.20
2022-11-16T14:28:48.991Z,20.38
2022-11-16T14:31:46.229Z,19.83
2022-11-16T14:34:17.032Z,23.50
2022-11-16T14:36:45.225Z,18.67
2022-11-16T14:39:18.295Z,18.45
2022-11-16T14:41:47.113Z,19.98
2022-11-16T14:44:18.323Z,20.05
2022-11-16T14:46:45.707Z,21.75
2022-11-16T14:49:16.054Z,18.70
2022-11-16T14:51:48.624Z,17.10
2022-11-16T14:54:21.029Z,17.80
2022-11-16T14:57:01.610Z,19.45
2022-11-16T14:59:29.835Z,17.13
2022-11-16T15:01:57.095Z,17.20
2022-11-16T15:04:26.069Z,22.85
2022-11-16T15:06:59.098Z,19.40
2022-11-16T15:09:34.484Z,17.52
2022-11-16T15:12:22.244Z,19.25
2022-11-16T15:14:51.076Z,17.08
2022-11-16T15:17:19.405Z,16.73
2022-11-16T15:19:59.404Z,21.05
2022-11-16T15:22:28.261Z,17.60
2022-11-16T15:24:57.326Z,20.00
2022-11-16T15:27:24.486Z,17.58
2022-11-16T15:29:51.840Z,18.98
2022-11-16T15:32:19.100Z,18.38
2022-11-16T15:34:51.794Z,17.20
2022-11-16T15:37:30.984Z,15.77
2022-11-16T15:39:58.935Z,15.88
2022-11-16T15:42:27.774Z,15.55
2022-11-16T15:44:55.448Z,16.63
2022-11-16T15:47:23.154Z,14.98
2022-11-16T15:49:52.925Z,18.08
2022-11-16T15:52:40.415Z,14.82
2022-11-16T15:55:20.436Z,15.43
2022-11-16T15:57:59.200Z,15.07
2022-11-16T16:00:27.090Z,17.08
2022-11-16T16:02:55.598Z,15.07
2022-11-16T16:05:39.630Z,13.25
2022-11-16T16:08:07.850Z,14.30
2022-11-16T16:10:35.086Z,15.63
2022-11-16T16:13:02.679Z,14.80
2022-11-16T16:15:34.100Z,17.05
2022-11-16T16:18:01.890Z,14.73
2022-11-16T16:20:32.958Z,16.20
2022-11-16T16:23:07.768Z,18.70
2022-11-16T16:25:36.287Z,14.35
2022-11-16T16:28:06.592Z,16.92
2022-11-16T16:30:34.955Z,14.20
2022-11-16T16:33:02.338Z,13.80
2022-11-16T16:35:29.864Z,16.67
2022-11-16T16:37:58.793Z,17.58
2022-11-16T16:40:26.562Z,14.63
2022-11-16T16:42:54.098Z,19.15
2022-11-16T16:45:24.020Z,19.23
2022-11-16T16:47:51.225Z,14.63
2022-11-16T16:50:18.427Z,13.27
2022-11-16T16:52:46.167Z,13.10
2022-11-16T16:55:13.458Z,13.48
2022-11-16T16:57:40.629Z,12.32
2022-11-16T17:00:08.108Z,12.90
2022-11-16T17:02:36.973Z,13.15
2022-11-16T17:05:04.375Z,11.52
2022-11-16T17:07:31.999Z,13.05
2022-11-16T17:09:59.175Z,12.50
2022-11-16T17:12:26.342Z,17.13
2022-11-16T17:14:53.479Z,12.43
2022-11-16T17:17:21.349Z,15.13
2022-11-16T17:19:48.479Z,15.23
2022-11-16T17:22:15.619Z,13.13
2022-11-16T17:24:42.760Z,12.10
2022-11-16T17:27:10.067Z,11.75
2022-11-16T17:29:37.196Z,13.65
2022-11-16T17:32:04.449Z,16.67
2022-11-16T17:34:32.207Z,11.70
2022-11-16T17:36:59.446Z,10.52
2022-11-16T17:39:26.611Z,13.48
2022-11-16T17:41:53.831Z,13.75
2022-11-16T17:44:22.050Z,11.00
2022-11-16T17:46:49.741Z,11.55
2022-11-16T17:49:16.910Z,12.70
2022-11-16T17:51:44.346Z,11.27
2022-11-16T17:54:11.551Z,13.25
2022-11-16T17:56:38.778Z,10.38
2022-11-16T17:59:05.987Z,13.88
2022-11-16T18:01:33.288Z,11.30
2022-11-16T18:04:01.273Z,12.07
2022-11-16T18:06:28.486Z,13.77
2022-11-16T18:08:55.643Z,11.60
2022-11-16T18:11:24.124Z,11.27
2022-11-16T18:13:55.043Z,9.65
2022-11-16T18:16:23.848Z,10.55
2022-11-16T18:18:56.036Z,10.95
2022-11-16T18:21:23.205Z,10.55
2022-11-16T18:23:50.369Z,10.23
2022-11-16T18:26:18.844Z,11.90
2022-11-16T18:28:46.387Z,10.60
2022-11-16T18:31:15.385Z,10.10
2022-11-16T18:33:43.020Z,10.50
2022-11-16T18:36:10.837Z,11.50
2022-11-16T18:38:38.058Z,10.45
2022-11-16T18:41:14.247Z,9.85
2022-11-16T18:43:54.545Z,10.75
2022-11-16T18:46:23.187Z,10.65
2022-11-16T18:48:50.634Z,10.07
2022-11-16T18:51:18.689Z,9.85
2022-11-16T18:53:46.213Z,10.40
2022-11-16T18:56:13.708Z,9.13
2022-11-16T18:58:50.925Z,10.05
2022-11-16T19:01:20.452Z,12.02
2022-11-16T19:03:47.873Z,10.00
2022-11-16T19:06:17.089Z,9.35
2022-11-16T19:08:46.882Z,9.95
2022-11-16T19:11:17.503Z,9.63
2022-11-16T19:13:45.279Z,9.15
2022-11-16T19:16:13.434Z,9.02
2022-11-16T19:18:40.605Z,11.00
2022-11-16T19:21:12.193Z,10.57
2022-11-16T19:23:40.437Z,11.02
2022-11-16T19:26:08.142Z,9.15
2022-11-16T19:28:36.383Z,11.63
2022-11-16T19:31:07.779Z,9.73
2022-11-16T19:33:35.412Z,14.02
2022-11-16T19:36:13.283Z,12.52
2022-11-16T19:38:40.746Z,9.10
2022-11-16T19:41:08.713Z,12.55
2022-11-16T19:43:36.240Z,11.23
2022-11-16T19:46:07.452Z,10.15
2022-11-16T19:48:35.111Z,8.93
2022-11-16T19:51:21.902Z,8.30
2022-11-16T19:53:49.363Z,12.18
2022-11-16T19:56:17.592Z,10.15
2022-11-16T19:58:45.167Z,8.30
2022-11-16T20:01:14.013Z,9.98
2022-11-16T20:03:42.146Z,10.20
2022-11-16T20:06:15.475Z,10.68
2022-11-16T20:08:43.075Z,10.98
2022-11-16T20:11:14.509Z,11.38
2022-11-16T20:13:42.538Z,11.85
2022-11-16T20:16:11.022Z,11.13
2022-11-16T20:18:39.004Z,11.32
2022-11-16T20:21:06.657Z,9.93
2022-11-16T20:23:34.658Z,11.05
2022-11-16T20:26:10.296Z,13.25
2022-11-16T20:28:38.074Z,15.88
2022-11-16T20:31:08.344Z,10.98
2022-11-16T20:33:35.797Z,19.83
2022-11-16T20:36:12.563Z,13.88
2022-11-16T20:38:40.350Z,11.40
2022-11-16T20:41:11.336Z,10.77
2022-11-16T20:43:42.159Z,11.77
2022-11-16T20:46:10.308Z,12.43
2022-11-16T20:48:37.982Z,10.00
2022-11-16T20:51:05.667Z,13.63
2022-11-16T20:53:33.434Z,18.52
2022-11-16T20:56:04.404Z,11.30
2022-11-16T20:58:32.164Z,10.77
2022-11-16T21:01:06.917Z,9.93
2022-11-16T21:03:34.636Z,12.27
2022-11-16T21:06:02.329Z,18.50
2022-11-16T21:08:29.985Z,11.32
2022-11-16T21:10:57.256Z,15.50
2022-11-16T21:13:43.590Z,11.57
2022-11-16T21:18:40.877Z,8.57
2022-11-16T21:21:09.320Z,15.43
2022-11-16T21:23:37.311Z,10.82
2022-11-16T21:26:05.724Z,10.10
2022-11-16T21:28:32.861Z,13.45
2022-11-16T21:31:01.629Z,9.65
2022-11-16T21:33:29.076Z,14.20
2022-11-16T21:35:56.488Z,14.73
2022-11-16T21:38:25.323Z,12.68
2022-11-16T21:40:52.646Z,9.32
2022-11-16T21:43:19.981Z,9.73
2022-11-16T21:45:47.777Z,12.35
2022-11-16T21:48:14.974Z,13.45
2022-11-16T21:50:42.301Z,11.40
2022-11-16T21:53:09.863Z,12.38
2022-11-16T21:55:37.040Z,9.73
2022-11-16T21:58:04.245Z,11.40
2022-11-16T22:00:31.627Z,10.75
2022-11-16T22:02:58.950Z,13.88
2022-11-16T22:05:45.033Z,11.23
2022-11-16T22:08:12.314Z,12.43
2022-11-16T22:10:39.502Z,14.30
2022-11-16T22:13:06.714Z,10.43
2022-11-16T22:15:33.974Z,13.50
2022-11-16T22:18:02.180Z,13.70
2022-11-16T22:20:29.313Z,13.13
2022-11-16T22:22:56.428Z,12.25
2022-11-16T22:25:23.548Z,11.23
2022-11-16T22:28:20.216Z,11.88
2022-11-16T22:30:38.123Z,9.27
2022-11-16T22:33:05.258Z,13.38
2022-11-16T22:35:32.404Z,14.77
2022-11-16T22:38:01.502Z,11.98
2022-11-16T22:40:28.618Z,14.65
2022-11-16T22:42:59.456Z,10.57
2022-11-16T22:45:26.833Z,18.70
2022-11-16T22:47:55.004Z,10.85
2022-11-16T22:50:24.068Z,10.85
2022-11-16T22:52:51.187Z,11.25
2022-11-16T22:55:18.341Z,19.65
2022-11-16T22:57:45.532Z,17.40
2022-11-16T23:00:13.606Z,14.70
2022-11-16T23:02:41.098Z,13.70
2022-11-16T23:05:08.562Z,12.48
2022-11-16T23:07:35.804Z,15.32
2022-11-16T23:10:03.094Z,11.45
2022-11-16T23:12:48.859Z,9.75
2022-11-16T23:15:34.976Z,11.90
2022-11-16T23:18:02.118Z,13.40
2022-11-16T23:20:47.936Z,9.90
2022-11-16T23:23:37.687Z,12.07
2022-11-16T23:26:25.430Z,14.85
2022-11-16T23:28:52.610Z,10.00
2022-11-16T23:31:19.722Z,13.43
2022-11-16T23:33:47.794Z,9.80
2022-11-16T23:36:15.077Z,15.02
2022-11-16T23:38:42.276Z,9.98
2022-11-16T23:41:28.161Z,12.77
2022-11-16T23:43:58.397Z,8.65
2022-11-16T23:46:26.858Z,9.73
2022-11-16T23:48:54.322Z,8.73
2022-11-16T23:51:23.357Z,15.18
2022-11-16T23:53:51.694Z,8.55
2022-11-16T23:56:19.760Z,10.65
2022-11-16T23:58:46.957Z,9.80
